Skip Navigation LinksHome page > Weather > Current weather Skip Navigation Links

Current Weather

Eureka, Nunavut

For information only: do not use for flight planning or navigation.
Latest weather
Observation time Wednesday, February 22, 2017 2:00 AM CST
Local time Wednesday, February 22, 2017 2:20 AM CST
Flight conditions Visual Meteorological Conditions
Winds
Wind direction South-Southeast (160°)
Wind speed 6 mph
Visibility 15 mi.
Present weather ice crystals
Sky condition
Ceiling unlimited
Sky clear
Temperature -36°F
Dewpoint -44°F
Altimeter 30.20 in.Hg
Derived measurements
Relative humidity 66%
Wind chill -55°F
Density altitude -7392 ft.
Sea-level pressure 30.21 in.Hg
METAR CWEU 220800Z 16005KT 15SM IC SKC M38/M42 A3020 RMK SLP229

Settings

Location code

InnerDrive.Weather 4.0.6144.1 Release CLR 4.0.30319.34209
Copyright ©2015 Inner Drive Technology. All rights reserved. Portions Copyright ©1986-2015 David Braverman.

Find weather

Site navigation


Skip Navigation Links

Place info

Page info

PayPal - The safer, easier way to pay online!

Return home.

Copyright ©2017 Inner Drive Technology. Purveyors of fine, hand-crafted computer software. Page printed 2017-02-22T08:20:53 UTC.